Time;durP1;ratioP1;P1;durP2;ratioP2;P2;SDS_P1;SDS_P2;PMS_P1;PMS_P2;Temp;Humidity;BMP_temperature;BMP_pressure;BME280_temperature;BME280_humidity;BME280_pressure;Samples;Min_cycle;Max_cycle;Signal;HPM_P1;HPM_P2
2022/08/06 00:00:37;;;;;;;;;;;;;;;19.04;59.44;96926.34;5058045;28;20428;-72
2022/08/06 00:03:03;;;;;;;;;;;;;;;19.02;58.68;96935.66;5044101;28;19973;-72
2022/08/06 00:05:29;;;;;;;;;;;;;;;19.00;58.85;96927.97;5049596;28;19964;-72
2022/08/06 00:07:56;;;;;;;;;;;;;;;19.02;60.26;96936.47;5033585;28;19982;-72
2022/08/06 00:10:23;;;;;;;;;;;;;;;18.99;57.32;96910.41;5048081;28;19961;-72
2022/08/06 00:12:49;;;;;;;;;;;;;;;18.97;57.74;96912.53;5043794;28;19960;-72
2022/08/06 00:15:17;;;;;;;;;;;;;;;18.94;57.87;96914.88;5039718;28;19981;-72
2022/08/06 00:17:44;;;;;;;;;;;;;;;18.91;58.22;96924.19;5034361;28;19967;-72
2022/08/06 00:20:10;;;;;;;;;;;;;;;18.91;58.09;96916.22;5046779;28;19981;-71
2022/08/06 00:22:36;;;;;;;;;;;;;;;18.90;57.63;96913.81;5043637;28;20427;-72
2022/08/06 00:25:03;;;;;;;;;;;;;;;18.89;58.89;96925.50;5047624;28;19966;-72
2022/08/06 00:27:28;;;;;;;;;;;;;;;18.87;58.03;96912.47;5040380;28;19963;-72
2022/08/06 00:29:54;;;;;;;;;;;;;;;18.86;58.02;96918.84;5042864;28;19999;-72
2022/08/06 00:32:20;;;;;;;;;;;;;;;18.83;57.31;96920.16;5035067;28;20023;-72
2022/08/06 00:34:46;;;;;;;;;;;;;;;18.81;57.23;96908.19;5044975;28;20410;-72
2022/08/06 00:37:12;;;;;;;;;;;;;;;18.77;58.32;96928.34;5038990;28;20422;-72
2022/08/06 00:39:38;;;;;;;;;;;;;;;18.75;58.12;96922.47;5044981;28;20410;-72
2022/08/06 00:42:04;;;;;;;;;;;;;;;18.74;58.21;96920.91;5034374;28;19992;-72
2022/08/06 00:44:30;;;;;;;;;;;;;;;18.72;58.13;96926.47;5047955;28;20445;-72
2022/08/06 00:46:56;;;;;;;;;;;;;;;18.73;57.60;96914.78;5033611;28;19965;-71
2022/08/06 00:49:21;;;;;;;;;;;;;;;18.74;57.39;96927.00;5048268;28;20068;-72
2022/08/06 00:51:47;;;;;;;;;;;;;;;18.74;57.38;96927.00;5038196;28;19989;-72
2022/08/06 00:54:13;;;;;;;;;;;;;;;18.72;57.58;96933.63;5039045;28;19960;-72
2022/08/06 00:56:39;;;;;;;;;;;;;;;18.72;58.06;96945.06;5046740;28;20073;-72
2022/08/06 00:59:05;;;;;;;;;;;;;;;18.70;57.52;96936.53;5045111;28;19964;-72
2022/08/06 01:01:31;;;;;;;;;;;;;;;18.68;57.93;96949.28;5035767;28;19974;-72
2022/08/06 01:03:57;;;;;;;;;;;;;;;18.66;57.11;96946.09;5048437;28;19963;-72
2022/08/06 01:06:23;;;;;;;;;;;;;;;18.67;58.12;96940.53;5042802;28;19958;-72
2022/08/06 01:08:49;;;;;;;;;;;;;;;18.66;57.21;96936.25;5034710;28;20431;-72
2022/08/06 01:11:15;;;;;;;;;;;;;;;18.66;57.87;96954.06;5044877;28;19973;-72
2022/08/06 01:13:40;;;;;;;;;;;;;;;18.64;57.05;96937.56;5045635;28;20415;-72
2022/08/06 01:16:17;;;;;;;;;;;;;;;18.62;57.40;96950.31;5033931;28;20006;-72
2022/08/06 01:18:59;;;;;;;;;;;;;;;18.59;57.13;96945.53;5042478;28;20345;-72
2022/08/06 01:21:45;;;;;;;;;;;;;;;18.56;56.74;96940.72;5046207;28;19981;-72
2022/08/06 01:24:31;;;;;;;;;;;;;;;18.53;57.71;96944.69;5034392;28;20331;-72
2022/08/06 01:27:15;;;;;;;;;;;;;;;18.52;57.26;96948.41;5010642;28;20323;-72
2022/08/06 01:29:46;;;;;;;;;;;;;;;18.52;57.15;96944.94;5046076;28;19990;-72
2022/08/06 01:32:15;;;;;;;;;;;;;;;18.53;57.79;96952.66;5037981;28;20436;-71
2022/08/06 01:34:48;;;;;;;;;;;;;;;18.56;57.62;96957.47;5045612;28;20411;-72
2022/08/06 01:37:20;;;;;;;;;;;;;;;18.56;57.53;96949.50;5037487;28;19963;-71
2022/08/06 01:39:48;;;;;;;;;;;;;;;18.55;57.05;96949.75;5042917;28;19967;-72
2022/08/06 01:42:15;;;;;;;;;;;;;;;18.51;57.12;96948.66;5039467;28;20444;-71
2022/08/06 01:44:43;;;;;;;;;;;;;;;18.49;57.45;96943.59;5043504;28;19959;-72
2022/08/06 01:47:11;;;;;;;;;;;;;;;18.52;57.53;96958.22;5035579;28;19969;-71
2022/08/06 01:49:39;;;;;;;;;;;;;;;18.56;57.38;96952.16;5046311;28;19966;-79
2022/08/06 01:52:07;;;;;;;;;;;;;;;18.61;58.11;96952.16;5045505;28;19967;-71
2022/08/06 01:54:37;;;;;;;;;;;;;;;18.69;57.42;96940.28;5048635;28;19989;-71
2022/08/06 01:57:03;;;;;;;;;;;;;;;18.76;57.11;96942.69;5037979;28;19953;-71
2022/08/06 01:59:33;;;;;;;;;;;;;;;18.74;57.28;96940.28;5043302;28;20349;-71
2022/08/06 02:02:00;;;;;;;;;;;;;;;18.77;56.86;96937.13;5044466;28;19978;-71
2022/08/06 02:04:27;;;;;;;;;;;;;;;18.76;56.32;96934.72;5045718;28;20419;-71
2022/08/06 02:06:55;;;;;;;;;;;;;;;18.70;56.70;96939.19;5035551;28;19957;-72
2022/08/06 02:09:22;;;;;;;;;;;;;;;18.69;56.42;96944.75;5051212;28;19961;-71
2022/08/06 02:11:53;;;;;;;;;;;;;;;18.68;56.66;96943.97;5053734;28;19964;-72
2022/08/06 02:14:20;;;;;;;;;;;;;;;18.71;56.83;96959.41;5044986;28;19965;-71
2022/08/06 02:16:48;;;;;;;;;;;;;;;18.72;56.69;96952.22;5043858;28;19961;-71
2022/08/06 02:19:15;;;;;;;;;;;;;;;18.72;56.13;96953.03;5043334;28;19971;-71
2022/08/06 02:21:43;;;;;;;;;;;;;;;18.70;56.36;96962.31;5051598;28;19976;-71
2022/08/06 02:24:09;;;;;;;;;;;;;;;18.66;56.03;96965.47;5038985;28;20437;-73
2022/08/06 02:26:37;;;;;;;;;;;;;;;18.65;55.97;96957.78;5045541;28;20326;-71
2022/08/06 02:29:04;;;;;;;;;;;;;;;18.62;56.63;96958.28;5046529;28;19991;-71
2022/08/06 02:31:30;;;;;;;;;;;;;;;18.62;56.49;96971.56;5036796;28;19969;-71
2022/08/06 02:33:56;;;;;;;;;;;;;;;18.62;56.85;96969.69;5050282;28;19959;-71
2022/08/06 02:36:29;;;;;;;;;;;;;;;18.61;56.61;96969.97;5047394;28;19966;-71
2022/08/06 02:39:02;;;;;;;;;;;;;;;18.59;55.92;96966.78;5042701;28;19957;-71
2022/08/06 02:41:30;;;;;;;;;;;;;;;18.57;56.59;96969.69;5061690;28;19989;-71
2022/08/06 02:43:58;;;;;;;;;;;;;;;18.58;56.56;96957.19;5038083;28;19978;-71
2022/08/06 02:46:27;;;;;;;;;;;;;;;18.54;56.67;96964.88;5040783;28;20443;-71
2022/08/06 02:49:08;;;;;;;;;;;;;;;18.49;56.36;96962.19;5038810;28;20019;-71
2022/08/06 02:51:37;;;;;;;;;;;;;;;18.48;56.88;96970.41;5049737;28;19969;-71
2022/08/06 02:54:39;;;;;;;;;;;;;;;18.44;56.88;96964.81;5057822;28;20331;-71
2022/08/06 02:57:07;;;;;;;;;;;;;;;18.43;57.05;96971.97;4986622;28;19975;-71
2022/08/06 02:59:38;;;;;;;;;;;;;;;18.41;56.70;96963.44;5026796;28;20437;-71
2022/08/06 03:02:07;;;;;;;;;;;;;;;18.40;57.19;96971.69;5036873;28;19982;-71
2022/08/06 03:04:36;;;;;;;;;;;;;;;18.39;57.22;96973.53;5045670;28;19969;-71
2022/08/06 03:07:05;;;;;;;;;;;;;;;18.39;57.05;96970.09;5042338;28;19964;-71
2022/08/06 03:09:31;;;;;;;;;;;;;;;18.40;57.09;96977.00;5049290;28;19976;-71
2022/08/06 03:11:57;;;;;;;;;;;;;;;18.37;57.25;96977.50;5051641;28;19968;-71
2022/08/06 03:14:24;;;;;;;;;;;;;;;18.35;57.07;96983.09;5042268;28;19965;-71
2022/08/06 03:16:51;;;;;;;;;;;;;;;18.32;57.29;96983.56;5043546;28;19959;-71
2022/08/06 03:19:18;;;;;;;;;;;;;;;18.31;57.45;96981.16;5042994;28;19974;-71
2022/08/06 03:21:45;;;;;;;;;;;;;;;18.29;57.76;96989.41;5038044;28;19971;-71
2022/08/06 03:24:11;;;;;;;;;;;;;;;18.29;57.57;96986.75;5048957;28;19962;-71
2022/08/06 03:26:39;;;;;;;;;;;;;;;18.31;57.40;96994.44;5055587;28;19953;-71
2022/08/06 03:29:05;;;;;;;;;;;;;;;18.29;57.59;96999.22;5045872;28;19998;-71
2022/08/06 03:31:32;;;;;;;;;;;;;;;18.29;57.48;97001.88;5049052;28;19964;-71
2022/08/06 03:33:58;;;;;;;;;;;;;;;18.29;57.83;97005.34;5039655;28;19956;-70
2022/08/06 03:36:25;;;;;;;;;;;;;;;18.29;57.51;97012.47;5041529;28;20329;-71
2022/08/06 03:39:00;;;;;;;;;;;;;;;18.26;57.55;97008.47;5048196;28;19980;-71
2022/08/06 03:41:27;;;;;;;;;;;;;;;18.19;57.67;97010.56;5043634;28;19975;-72
2022/08/06 03:43:53;;;;;;;;;;;;;;;18.16;58.02;97008.41;5047807;28;19959;-71
2022/08/06 03:46:31;;;;;;;;;;;;;;;18.14;58.17;97007.84;5047831;28;19982;-70
2022/08/06 03:49:01;;;;;;;;;;;;;;;18.16;58.67;97024.31;5044934;28;19961;-71
2022/08/06 03:51:28;;;;;;;;;;;;;;;18.17;58.58;97021.44;5038938;28;20324;-71
2022/08/06 03:53:56;;;;;;;;;;;;;;;18.18;58.24;97016.91;5050308;28;19963;-72
2022/08/06 03:56:23;;;;;;;;;;;;;;;18.14;57.65;97002.53;5040985;28;19986;-71
2022/08/06 03:58:53;;;;;;;;;;;;;;;18.08;58.29;97020.28;5050146;28;19961;-71
2022/08/06 04:01:23;;;;;;;;;;;;;;;18.03;57.90;97009.63;5044124;28;19970;-71
2022/08/06 04:03:50;;;;;;;;;;;;;;;18.02;58.17;97016.00;5039509;28;19961;-72
2022/08/06 04:06:17;;;;;;;;;;;;;;;17.99;58.35;97014.63;5047443;28;19960;-71
2022/08/06 04:08:44;;;;;;;;;;;;;;;17.95;58.34;97004.75;5048401;28;19962;-71
2022/08/06 04:11:10;;;;;;;;;;;;;;;17.94;59.07;97017.22;5040071;28;19976;-70
2022/08/06 04:13:37;;;;;;;;;;;;;;;17.94;58.56;97025.19;5044787;28;20309;-71
2022/08/06 04:16:04;;;;;;;;;;;;;;;17.92;59.26;97032.59;5049398;28;19966;-71
2022/08/06 04:18:32;;;;;;;;;;;;;;;17.93;58.09;97018.28;5034137;28;19972;-71
2022/08/06 04:21:02;;;;;;;;;;;;;;;17.92;59.07;97031.81;5039787;28;19973;-71
2022/08/06 04:23:29;;;;;;;;;;;;;;;17.95;59.13;97037.41;5037701;28;19950;-71
2022/08/06 04:25:56;;;;;;;;;;;;;;;17.97;58.60;97037.94;5034727;28;19963;-71
2022/08/06 04:28:23;;;;;;;;;;;;;;;17.99;59.75;97041.16;5033939;28;19990;-71
2022/08/06 04:30:50;;;;;;;;;;;;;;;18.03;59.35;97044.13;5036192;28;19960;-70
2022/08/06 04:33:19;;;;;;;;;;;;;;;18.04;58.28;97037.78;5049235;28;19958;-71
2022/08/06 04:35:45;;;;;;;;;;;;;;;18.02;58.60;97043.31;5034944;28;19960;-71
2022/08/06 04:38:12;;;;;;;;;;;;;;;17.99;59.33;97057.06;5039852;28;19960;-71
2022/08/06 04:40:40;;;;;;;;;;;;;;;17.97;59.21;97056.53;5042347;28;20335;-71
2022/08/06 04:43:06;;;;;;;;;;;;;;;17.96;59.30;97065.56;5042426;28;19971;-71
2022/08/06 04:45:33;;;;;;;;;;;;;;;17.97;59.28;97061.03;5045197;28;19964;-71
2022/08/06 04:48:00;;;;;;;;;;;;;;;17.95;60.00;97068.44;5052121;28;19966;-72
2022/08/06 04:50:26;;;;;;;;;;;;;;;17.97;59.30;97067.13;5044829;28;19971;-71
2022/08/06 04:52:52;;;;;;;;;;;;;;;17.97;59.16;97075.09;5039290;28;19974;-71
2022/08/06 04:55:19;;;;;;;;;;;;;;;18.00;59.62;97073.81;5043482;28;19960;-71
2022/08/06 04:57:45;;;;;;;;;;;;;;;18.01;58.90;97068.25;5041843;28;20418;-71
2022/08/06 05:00:11;;;;;;;;;;;;;;;18.00;59.48;97071.97;5039250;28;19967;-71
2022/08/06 05:02:37;;;;;;;;;;;;;;;18.00;59.81;97084.44;5046017;28;19979;-71
2022/08/06 05:05:06;;;;;;;;;;;;;;;18.01;59.97;97086.03;5036963;28;20454;-71
2022/08/06 05:07:34;;;;;;;;;;;;;;;18.00;58.77;97079.13;5029766;28;19959;-71
2022/08/06 05:10:00;;;;;;;;;;;;;;;17.93;59.86;97087.28;5044092;28;19963;-71
2022/08/06 05:12:29;;;;;;;;;;;;;;;17.92;59.81;97082.22;5042883;28;19969;-71
2022/08/06 05:15:01;;;;;;;;;;;;;;;17.90;59.89;97097.59;5037873;28;19985;-71
2022/08/06 05:17:29;;;;;;;;;;;;;;;17.85;60.18;97099.13;5051121;28;19952;-71
2022/08/06 05:19:58;;;;;;;;;;;;;;;17.85;60.01;97098.34;5042503;28;19974;-71
2022/08/06 05:22:25;;;;;;;;;;;;;;;17.85;60.43;97106.31;5050333;28;19979;-71
2022/08/06 05:24:51;;;;;;;;;;;;;;;17.78;59.68;97101.13;5041782;28;19959;-71
2022/08/06 05:27:17;;;;;;;;;;;;;;;17.73;61.57;97124.16;5046765;28;19964;-71
2022/08/06 05:29:43;;;;;;;;;;;;;;;17.76;61.06;97113.03;5040235;28;19996;-71
2022/08/06 05:32:09;;;;;;;;;;;;;;;17.82;60.76;97122.69;5044324;28;19968;-71
2022/08/06 05:34:35;;;;;;;;;;;;;;;17.85;61.30;97117.72;5046700;28;19959;-71
2022/08/06 05:37:01;;;;;;;;;;;;;;;17.88;61.29;97120.91;5039067;28;20003;-71
2022/08/06 05:39:27;;;;;;;;;;;;;;;17.87;61.36;97120.13;5037455;28;19969;-71
2022/08/06 05:41:53;;;;;;;;;;;;;;;17.88;61.14;97126.22;5043907;28;19973;-71
2022/08/06 05:44:19;;;;;;;;;;;;;;;17.91;60.96;97134.50;5061045;28;19966;-72
2022/08/06 05:46:53;;;;;;;;;;;;;;;17.89;60.19;97127.81;5053056;28;19967;-71
2022/08/06 05:49:21;;;;;;;;;;;;;;;17.92;61.22;97138.75;5031034;28;19961;-72
2022/08/06 05:51:51;;;;;;;;;;;;;;;18.04;60.50;97130.66;5046554;28;19956;-72
2022/08/06 05:54:26;;;;;;;;;;;;;;;18.26;60.99;97135.94;5048334;28;19959;-72
2022/08/06 05:56:55;;;;;;;;;;;;;;;18.42;59.55;97121.75;5039817;28;19996;-72
2022/08/06 05:59:24;;;;;;;;;;;;;;;18.52;60.04;97131.69;5036930;28;20431;-71
2022/08/06 06:01:50;;;;;;;;;;;;;;;18.56;59.23;97126.66;5050568;28;19989;-71
2022/08/06 06:04:18;;;;;;;;;;;;;;;18.53;59.37;97132.47;5037797;28;19966;-71
2022/08/06 06:06:44;;;;;;;;;;;;;;;18.53;59.30;97135.13;5053919;28;19962;-71
2022/08/06 06:09:13;;;;;;;;;;;;;;;18.56;59.58;97139.94;5037683;28;20051;-71
2022/08/06 06:11:39;;;;;;;;;;;;;;;18.62;59.67;97138.91;5047599;28;19972;-71
2022/08/06 06:14:14;;;;;;;;;;;;;;;18.70;59.87;97143.78;5036404;28;19966;-71
2022/08/06 06:16:54;;;;;;;;;;;;;;;18.76;58.30;97132.13;5049408;28;19956;-71
2022/08/06 06:19:23;;;;;;;;;;;;;;;18.73;58.18;97134.50;5039200;28;19967;-71
2022/08/06 06:21:58;;;;;;;;;;;;;;;18.74;58.94;97144.88;5050519;28;19966;-71
2022/08/06 06:24:32;;;;;;;;;;;;;;;18.67;59.33;97142.44;5035893;28;20498;-71
2022/08/06 06:27:05;;;;;;;;;;;;;;;18.71;58.98;97144.56;5050725;28;19954;-71
2022/08/06 06:29:37;;;;;;;;;;;;;;;18.80;59.57;97151.06;5045482;28;19996;-71
2022/08/06 06:32:12;;;;;;;;;;;;;;;18.82;58.21;97141.78;5042904;28;19962;-71
2022/08/06 06:34:37;;;;;;;;;;;;;;;18.73;58.38;97148.59;5047527;28;19963;-71
2022/08/06 06:37:23;;;;;;;;;;;;;;;18.63;57.82;97145.84;5052243;28;20406;-71
2022/08/06 06:39:59;;;;;;;;;;;;;;;18.58;59.31;97157.25;5045339;28;19961;-71
2022/08/06 06:42:31;;;;;;;;;;;;;;;18.67;58.80;97155.72;5052158;28;19982;-71
2022/08/06 06:45:08;;;;;;;;;;;;;;;18.76;58.81;97157.91;5056567;28;19959;-72
2022/08/06 06:47:37;;;;;;;;;;;;;;;18.97;58.69;97157.06;5041045;28;19963;-73
2022/08/06 06:50:29;;;;;;;;;;;;;;;19.18;57.85;97144.72;5041108;28;19964;-72
2022/08/06 06:52:56;;;;;;;;;;;;;;;19.33;58.19;97145.88;5037056;28;19970;-72
2022/08/06 06:55:28;;;;;;;;;;;;;;;19.46;57.67;97140.91;5043698;28;20032;-72
2022/08/06 06:58:01;;;;;;;;;;;;;;;19.56;56.95;97142.00;5048796;28;19957;-72
2022/08/06 07:00:27;;;;;;;;;;;;;;;19.63;57.28;97151.38;5054319;28;19967;-72
2022/08/06 07:02:54;;;;;;;;;;;;;;;19.73;56.79;97152.50;5038241;28;19979;-73
2022/08/06 07:05:20;;;;;;;;;;;;;;;19.86;56.83;97150.19;5036292;28;20305;-72
2022/08/06 07:07:48;;;;;;;;;;;;;;;19.92;56.25;97137.66;5040083;28;19974;-72
2022/08/06 07:10:14;;;;;;;;;;;;;;;20.06;56.33;97144.13;5053364;28;19957;-72
2022/08/06 07:12:42;;;;;;;;;;;;;;;20.28;55.57;97135.09;5035182;28;20407;-83
2022/08/06 07:15:08;;;;;;;;;;;;;;;20.58;54.96;97129.06;5046593;28;19975;-72
2022/08/06 07:17:36;;;;;;;;;;;;;;;20.89;54.28;97121.06;5036042;28;19954;-72
2022/08/06 07:20:07;;;;;;;;;;;;;;;21.06;52.62;97102.94;5028702;28;19958;-71
2022/08/06 07:22:34;;;;;;;;;;;;;;;21.22;52.64;97100.22;5042243;28;19968;-71
2022/08/06 07:25:01;;;;;;;;;;;;;;;21.34;52.44;97102.63;5043236;28;20430;-71
2022/08/06 07:27:30;;;;;;;;;;;;;;;21.53;52.35;97098.31;5035166;28;19963;-72
2022/08/06 07:29:57;;;;;;;;;;;;;;;21.62;51.43;97096.66;5036907;28;19985;-71
2022/08/06 07:32:23;;;;;;;;;;;;;;;21.59;49.31;97059.84;5044551;28;19989;-71
2022/08/06 07:34:50;;;;;;;;;;;;;;;21.32;49.73;97070.06;5039708;28;19955;-71
2022/08/06 07:37:17;;;;;;;;;;;;;;;21.31;51.03;97085.25;5044639;28;19961;-72
2022/08/06 07:39:44;;;;;;;;;;;;;;;21.61;51.68;97092.41;5025471;28;19955;-71
2022/08/06 07:42:12;;;;;;;;;;;;;;;21.79;50.17;97074.19;5058699;28;19970;-71
2022/08/06 07:44:39;;;;;;;;;;;;;;;21.75;50.25;97081.94;5049197;28;19964;-71
2022/08/06 07:47:06;;;;;;;;;;;;;;;21.58;49.88;97084.94;5034621;28;19962;-71
2022/08/06 07:49:40;;;;;;;;;;;;;;;21.46;49.84;97089.78;5050114;28;20354;-71
2022/08/06 07:52:07;;;;;;;;;;;;;;;20.98;51.16;97106.16;5033879;28;19965;-71
2022/08/06 07:54:33;;;;;;;;;;;;;;;20.90;51.95;97122.69;5032885;28;19961;-72
2022/08/06 07:56:59;;;;;;;;;;;;;;;21.24;51.85;97122.09;5033460;28;19957;-72
2022/08/06 07:59:25;;;;;;;;;;;;;;;21.43;51.57;97120.47;5037147;28;20450;-84
2022/08/06 08:01:52;;;;;;;;;;;;;;;21.35;51.69;97133.56;5054115;28;19979;-72
2022/08/06 08:07:04;;;;;;;;;;;;;;;21.07;50.91;97127.72;5037206;28;19959;-72
2022/08/06 08:09:30;;;;;;;;;;;;;;;20.98;51.84;97135.47;5044183;28;20026;-71
2022/08/06 08:11:57;;;;;;;;;;;;;;;20.97;52.13;97143.75;5034498;28;19989;-71
2022/08/06 08:14:23;;;;;;;;;;;;;;;20.71;51.07;97122.41;5033112;28;19965;-71
2022/08/06 08:16:50;;;;;;;;;;;;;;;20.44;51.85;97133.28;5034811;28;19959;-71
2022/08/06 08:19:23;;;;;;;;;;;;;;;20.64;51.46;97127.19;5034224;28;19973;-71
2022/08/06 08:21:53;;;;;;;;;;;;;;;20.60;51.18;97126.13;5039086;28;20326;-71
2022/08/06 08:24:19;;;;;;;;;;;;;;;20.43;50.89;97129.84;5044285;28;19962;-70
2022/08/06 08:26:45;;;;;;;;;;;;;;;20.20;51.36;97135.63;5042929;28;19972;-72
2022/08/06 08:29:11;;;;;;;;;;;;;;;20.24;52.71;97140.19;5035519;28;19990;-72
2022/08/06 08:31:37;;;;;;;;;;;;;;;20.45;53.00;97146.34;5033215;28;19967;-72
2022/08/06 08:34:03;;;;;;;;;;;;;;;20.59;52.59;97141.31;5030198;28;19960;-74
2022/08/06 08:36:29;;;;;;;;;;;;;;;20.73;52.54;97146.16;5033531;28;20380;-72
2022/08/06 08:38:57;;;;;;;;;;;;;;;20.67;51.85;97134.66;5037166;28;20483;-74
2022/08/06 08:41:28;;;;;;;;;;;;;;;20.64;52.45;97151.19;5031128;28;19967;-74
2022/08/06 08:44:00;;;;;;;;;;;;;;;20.61;52.04;97133.06;5048382;28;20023;-84
2022/08/06 08:46:26;;;;;;;;;;;;;;;20.78;52.07;97133.59;5036814;28;19965;-72
2022/08/06 08:48:54;;;;;;;;;;;;;;;21.11;52.05;97126.13;5038638;28;19970;-72
2022/08/06 08:51:21;;;;;;;;;;;;;;;21.36;47.48;97092.47;5030942;28;19967;-73
2022/08/06 08:53:53;;;;;;;;;;;;;;;21.37;48.38;97102.84;5045618;28;19958;-74
2022/08/06 08:56:19;;;;;;;;;;;;;;;21.40;49.59;97125.56;5046253;28;19966;-72
2022/08/06 08:58:45;;;;;;;;;;;;;;;21.48;46.86;97104.47;5032466;28;20455;-73
2022/08/06 09:01:12;;;;;;;;;;;;;;;21.64;45.58;97102.53;5034295;28;19959;-72
2022/08/06 09:03:39;;;;;;;;;;;;;;;21.67;46.29;97109.19;5034372;28;19988;-73
2022/08/06 09:06:06;;;;;;;;;;;;;;;21.61;48.09;97137.00;5045609;28;19972;-73
2022/08/06 09:08:32;;;;;;;;;;;;;;;21.45;45.11;97115.66;5040653;28;20351;-73
2022/08/06 09:10:58;;;;;;;;;;;;;;;21.45;47.90;97141.56;5046032;28;19958;-72
2022/08/06 09:13:25;;;;;;;;;;;;;;;21.48;48.78;97147.16;5036445;28;19975;-73
2022/08/06 09:15:51;;;;;;;;;;;;;;;21.53;48.08;97145.56;5050665;28;19966;-73
2022/08/06 09:18:18;;;;;;;;;;;;;;;21.56;48.20;97150.34;5048863;28;19969;-73
2022/08/06 09:20:44;;;;;;;;;;;;;;;21.48;46.76;97141.00;5042807;28;19973;-73
2022/08/06 09:23:12;;;;;;;;;;;;;;;21.35;48.68;97168.25;5038773;28;19977;-73
2022/08/06 09:25:42;;;;;;;;;;;;;;;21.21;47.72;97152.78;5050331;28;19964;-73
2022/08/06 09:28:25;;;;;;;;;;;;;;;21.09;49.63;97174.41;5042739;28;19986;-73
2022/08/06 09:30:58;;;;;;;;;;;;;;;21.05;49.29;97181.34;5040560;28;19958;-73
2022/08/06 09:33:24;;;;;;;;;;;;;;;20.95;49.15;97175.19;5040904;28;20372;-73
2022/08/06 09:35:58;;;;;;;;;;;;;;;20.79;48.83;97177.88;5043544;28;19958;-73
2022/08/06 09:38:23;;;;;;;;;;;;;;;20.67;48.96;97178.13;5044862;28;20411;-73
2022/08/06 09:41:06;;;;;;;;;;;;;;;20.66;50.25;97194.34;5046401;28;20063;-73
2022/08/06 09:43:33;;;;;;;;;;;;;;;20.66;50.42;97191.69;5041460;28;19984;-72
2022/08/06 09:45:58;;;;;;;;;;;;;;;20.73;51.40;97194.13;5043486;28;19962;-73
2022/08/06 09:48:24;;;;;;;;;;;;;;;20.80;50.98;97200.78;5043237;28;20415;-73
2022/08/06 09:50:50;;;;;;;;;;;;;;;20.87;51.19;97197.84;5047998;28;20009;-73
2022/08/06 09:53:18;;;;;;;;;;;;;;;20.95;50.61;97201.88;5056461;28;19966;-73
2022/08/06 09:55:44;;;;;;;;;;;;;;;21.02;49.90;97187.22;5040895;28;19969;-74
2022/08/06 09:58:10;;;;;;;;;;;;;;;21.24;49.95;97188.78;5063339;28;19968;-73
2022/08/06 10:00:37;;;;;;;;;;;;;;;21.28;48.17;97168.53;5042889;28;19966;-73
2022/08/06 10:03:07;;;;;;;;;;;;;;;21.31;48.59;97175.19;5043323;28;19976;-73
2022/08/06 10:05:33;;;;;;;;;;;;;;;21.45;49.31;97179.72;5043334;28;19963;-73
2022/08/06 10:08:07;;;;;;;;;;;;;;;21.65;49.42;97175.44;5043586;28;19959;-73
2022/08/06 10:10:39;;;;;;;;;;;;;;;21.72;48.21;97165.25;5046435;28;19971;-73
2022/08/06 10:13:11;;;;;;;;;;;;;;;21.78;48.68;97174.06;5036277;28;19974;-73
2022/08/06 10:15:37;;;;;;;;;;;;;;;21.87;48.73;97167.84;5044022;28;20333;-76
2022/08/06 10:18:03;;;;;;;;;;;;;;;21.90;48.19;97169.19;5047935;28;19955;-73
2022/08/06 10:20:29;;;;;;;;;;;;;;;21.96;48.43;97173.44;5042491;28;20441;-73
2022/08/06 10:22:57;;;;;;;;;;;;;;;22.01;48.54;97177.97;5037479;28;19989;-73
2022/08/06 10:25:24;;;;;;;;;;;;;;;21.95;47.76;97169.19;5045373;28;19968;-73
2022/08/06 10:27:53;;;;;;;;;;;;;;;21.97;48.06;97174.25;5041792;28;19976;-73
2022/08/06 10:30:20;;;;;;;;;;;;;;;22.05;48.25;97179.81;5043112;28;20330;-73
2022/08/06 10:32:53;;;;;;;;;;;;;;;21.96;47.19;97169.97;5041700;28;19957;-73
2022/08/06 10:35:23;;;;;;;;;;;;;;;21.77;47.61;97167.88;5046368;28;19970;-74
2022/08/06 10:37:51;;;;;;;;;;;;;;;21.69;48.17;97173.78;5050707;28;20423;-73
2022/08/06 10:40:18;;;;;;;;;;;;;;;21.76;48.22;97176.19;5045955;28;19954;-73
2022/08/06 10:42:45;;;;;;;;;;;;;;;21.86;47.65;97166.28;5043561;28;19978;-73
2022/08/06 10:45:11;;;;;;;;;;;;;;;21.96;48.29;97173.44;5043624;28;19961;-73
2022/08/06 10:47:38;;;;;;;;;;;;;;;21.97;48.15;97169.69;5050580;28;20414;-73
2022/08/06 10:50:05;;;;;;;;;;;;;;;21.96;48.22;97168.09;5043221;28;19961;-73
2022/08/06 10:52:31;;;;;;;;;;;;;;;22.06;48.09;97175.25;5043438;28;19965;-73
2022/08/06 10:54:59;;;;;;;;;;;;;;;22.17;47.59;97163.44;5046684;28;19962;-73
2022/08/06 10:57:26;;;;;;;;;;;;;;;22.22;47.65;97168.78;5045566;28;19962;-73
2022/08/06 10:59:53;;;;;;;;;;;;;;;22.26;46.51;97156.50;5048698;28;19959;-73
2022/08/06 11:02:27;;;;;;;;;;;;;;;22.30;46.99;97162.09;5044830;28;19973;-73
2022/08/06 11:05:00;;;;;;;;;;;;;;;22.36;47.73;97165.53;5043018;28;19952;-73
2022/08/06 11:07:37;;;;;;;;;;;;;;;22.45;47.25;97163.88;5044174;28;19982;-73
2022/08/06 11:10:09;;;;;;;;;;;;;;;22.57;45.24;97147.50;5047715;28;19954;-73
2022/08/06 11:12:38;;;;;;;;;;;;;;;22.55;46.31;97158.44;5051940;28;20414;-73
2022/08/06 11:15:05;;;;;;;;;;;;;;;22.49;46.81;97165.72;5048284;28;19965;-73
2022/08/06 11:17:41;;;;;;;;;;;;;;;22.49;45.56;97144.34;5032999;28;19953;-73
2022/08/06 11:20:07;;;;;;;;;;;;;;;22.44;44.38;97139.00;5032583;28;19967;-73
2022/08/06 11:22:38;;;;;;;;;;;;;;;22.40;45.41;97154.00;5036093;28;19977;-73
2022/08/06 11:25:05;;;;;;;;;;;;;;;22.52;45.30;97160.91;5032648;28;19960;-82
2022/08/06 11:27:49;;;;;;;;;;;;;;;22.82;45.99;97158.00;5035529;28;19974;-74
2022/08/06 11:30:16;;;;;;;;;;;;;;;23.17;45.25;97150.00;5036477;28;19969;-73
2022/08/06 11:32:43;;;;;;;;;;;;;;;23.15;44.90;97155.63;5045896;28;19989;-73
2022/08/06 11:35:27;;;;;;;;;;;;;;;23.21;44.92;97149.16;5034369;28;19965;-73
2022/08/06 11:37:53;;;;;;;;;;;;;;;23.41;43.75;97140.09;5023668;28;19964;-75
2022/08/06 11:40:19;;;;;;;;;;;;;;;23.69;43.63;97132.34;5037044;28;20457;-74
2022/08/06 11:42:45;;;;;;;;;;;;;;;23.87;43.10;97131.59;5042171;28;20016;-74
2022/08/06 11:45:11;;;;;;;;;;;;;;;24.11;41.32;97112.81;5043443;28;19975;-74
2022/08/06 11:47:57;;;;;;;;;;;;;;;24.33;41.86;97132.88;5035346;28;20013;-73
2022/08/06 11:50:23;;;;;;;;;;;;;;;24.60;42.30;97144.84;5034077;28;19964;-74
2022/08/06 11:52:49;;;;;;;;;;;;;;;25.08;43.12;97139.25;5035086;28;19966;-73
2022/08/06 11:55:15;;;;;;;;;;;;;;;25.29;40.93;97124.41;5046301;28;20002;-73
2022/08/06 11:57:41;;;;;;;;;;;;;;;25.15;40.69;97139.66;5045547;28;20363;-73
2022/08/06 12:00:11;;;;;;;;;;;;;;;25.04;40.49;97148.97;5038290;28;19989;-73
2022/08/06 12:02:41;;;;;;;;;;;;;;;25.02;42.24;97151.16;5054095;28;19982;-75
2022/08/06 12:05:07;;;;;;;;;;;;;;;25.04;40.35;97130.97;5041900;28;19966;-73
2022/08/06 12:07:34;;;;;;;;;;;;;;;25.24;40.04;97129.06;5035544;28;19956;-73
2022/08/06 12:10:06;;;;;;;;;;;;;;;25.41;40.77;97139.22;5046761;28;19962;-73
2022/08/06 12:12:35;;;;;;;;;;;;;;;25.27;39.05;97137.31;5037910;28;19983;-72
2022/08/06 12:15:02;;;;;;;;;;;;;;;25.31;39.02;97142.91;5032951;28;19983;-72
2022/08/06 12:17:28;;;;;;;;;;;;;;;25.31;37.63;97126.81;5040149;28;20333;-72
2022/08/06 12:20:02;;;;;;;;;;;;;;;25.25;40.58;97144.88;5049277;28;19974;-71
2022/08/06 12:22:28;;;;;;;;;;;;;;;25.44;37.50;97125.22;5045039;28;19958;-71
2022/08/06 12:24:57;;;;;;;;;;;;;;;25.48;38.96;97134.28;5042283;28;19954;-74
2022/08/06 12:27:23;;;;;;;;;;;;;;;25.71;38.10;97121.75;5039714;28;19966;-72
2022/08/06 12:29:55;;;;;;;;;;;;;;;25.63;37.96;97117.06;5040192;28;19989;-71
2022/08/06 12:32:24;;;;;;;;;;;;;;;25.64;39.12;97134.75;5028148;28;19964;-79
2022/08/06 12:34:51;;;;;;;;;;;;;;;25.45;38.66;97126.78;5029700;28;19958;-74
2022/08/06 12:37:17;;;;;;;;;;;;;;;24.91;36.40;97110.28;5034058;28;19969;-71
2022/08/06 12:42:29;;;;;;;;;;;;;;;25.01;39.41;97122.72;5042500;28;19957;-71
2022/08/06 12:44:55;;;;;;;;;;;;;;;25.30;40.06;97130.56;5042287;28;20158;-73
2022/08/06 12:47:21;;;;;;;;;;;;;;;25.48;38.69;97113.56;5045592;28;19954;-72
2022/08/06 12:49:47;;;;;;;;;;;;;;;25.67;39.11;97110.00;5047749;28;19968;-72
2022/08/06 12:52:16;;;;;;;;;;;;;;;25.85;37.74;97098.34;5040033;28;19972;-72
2022/08/06 12:54:43;;;;;;;;;;;;;;;26.01;38.99;97098.84;5038797;28;19966;-71
2022/08/06 12:57:23;;;;;;;;;;;;;;;26.21;37.55;97084.16;5043447;28;20314;-71
2022/08/06 12:59:49;;;;;;;;;;;;;;;26.27;37.36;97074.06;5033108;28;20313;-71